sensor_id;sensor_type;location;lat;lon;timestamp;P1;durP1;ratioP1;P2;durP2;ratioP2
1224;SDS011;602;48.000;7.840;2023-05-07T00:01:34;1.70;;;1.60;;
1224;SDS011;602;48.000;7.840;2023-05-07T00:04:01;1.77;;;1.60;;
1224;SDS011;602;48.000;7.840;2023-05-07T00:06:28;1.40;;;1.30;;
1224;SDS011;602;48.000;7.840;2023-05-07T00:08:56;4.30;;;1.47;;
1224;SDS011;602;48.000;7.840;2023-05-07T00:11:23;1.57;;;1.47;;
1224;SDS011;602;48.000;7.840;2023-05-07T00:13:50;1.40;;;1.30;;
1224;SDS011;602;48.000;7.840;2023-05-07T00:16:17;1.63;;;1.53;;
1224;SDS011;602;48.000;7.840;2023-05-07T00:18:45;2.40;;;1.87;;
1224;SDS011;602;48.000;7.840;2023-05-07T00:21:12;2.43;;;2.00;;
1224;SDS011;602;48.000;7.840;2023-05-07T00:23:39;2.90;;;2.60;;
1224;SDS011;602;48.000;7.840;2023-05-07T00:26:06;2.13;;;1.87;;
1224;SDS011;602;48.000;7.840;2023-05-07T00:28:33;2.30;;;2.10;;
1224;SDS011;602;48.000;7.840;2023-05-07T00:31:00;1.80;;;1.70;;
1224;SDS011;602;48.000;7.840;2023-05-07T00:33:26;3.70;;;3.40;;
1224;SDS011;602;48.000;7.840;2023-05-07T00:35:55;1.80;;;1.67;;
1224;SDS011;602;48.000;7.840;2023-05-07T00:38:21;2.80;;;2.60;;
1224;SDS011;602;48.000;7.840;2023-05-07T00:40:48;2.23;;;2.13;;
1224;SDS011;602;48.000;7.840;2023-05-07T00:43:16;1.80;;;1.70;;
1224;SDS011;602;48.000;7.840;2023-05-07T00:45:43;1.17;;;1.10;;
1224;SDS011;602;48.000;7.840;2023-05-07T00:48:10;2.50;;;1.50;;
1224;SDS011;602;48.000;7.840;2023-05-07T00:50:37;1.47;;;1.37;;
1224;SDS011;602;48.000;7.840;2023-05-07T00:53:06;1.57;;;1.27;;
1224;SDS011;602;48.000;7.840;2023-05-07T00:55:32;1.70;;;1.60;;
1224;SDS011;602;48.000;7.840;2023-05-07T00:57:59;2.43;;;1.60;;
1224;SDS011;602;48.000;7.840;2023-05-07T01:00:26;1.40;;;1.20;;
1224;SDS011;602;48.000;7.840;2023-05-07T01:02:54;2.47;;;2.10;;
1224;SDS011;602;48.000;7.840;2023-05-07T01:05:20;1.50;;;1.27;;
1224;SDS011;602;48.000;7.840;2023-05-07T01:07:50;1.70;;;1.60;;
1224;SDS011;602;48.000;7.840;2023-05-07T01:10:19;2.23;;;1.80;;
1224;SDS011;602;48.000;7.840;2023-05-07T01:12:47;1.50;;;1.37;;
1224;SDS011;602;48.000;7.840;2023-05-07T01:15:14;1.33;;;1.23;;
1224;SDS011;602;48.000;7.840;2023-05-07T01:17:42;3.17;;;1.67;;
1224;SDS011;602;48.000;7.840;2023-05-07T01:20:09;2.00;;;1.47;;
1224;SDS011;602;48.000;7.840;2023-05-07T01:22:38;0.90;;;0.90;;
1224;SDS011;602;48.000;7.840;2023-05-07T01:25:05;1.20;;;1.10;;
1224;SDS011;602;48.000;7.840;2023-05-07T01:27:33;1.77;;;1.47;;
1224;SDS011;602;48.000;7.840;2023-05-07T01:30:00;1.70;;;1.60;;
1224;SDS011;602;48.000;7.840;2023-05-07T01:32:29;1.10;;;1.03;;
1224;SDS011;602;48.000;7.840;2023-05-07T01:35:01;1.37;;;1.27;;
1224;SDS011;602;48.000;7.840;2023-05-07T01:37:31;1.90;;;1.33;;
1224;SDS011;602;48.000;7.840;2023-05-07T01:40:00;1.90;;;1.73;;
1224;SDS011;602;48.000;7.840;2023-05-07T01:42:28;1.87;;;1.70;;
1224;SDS011;602;48.000;7.840;2023-05-07T01:44:55;1.87;;;1.77;;
1224;SDS011;602;48.000;7.840;2023-05-07T01:47:22;1.80;;;1.70;;
1224;SDS011;602;48.000;7.840;2023-05-07T01:49:51;1.53;;;1.43;;
1224;SDS011;602;48.000;7.840;2023-05-07T01:52:18;1.70;;;1.60;;
1224;SDS011;602;48.000;7.840;2023-05-07T01:54:44;1.10;;;1.00;;
1224;SDS011;602;48.000;7.840;2023-05-07T01:57:13;1.67;;;1.57;;
1224;SDS011;602;48.000;7.840;2023-05-07T01:59:40;1.40;;;1.30;;
1224;SDS011;602;48.000;7.840;2023-05-07T02:02:06;1.43;;;1.33;;
1224;SDS011;602;48.000;7.840;2023-05-07T02:04:33;1.47;;;1.37;;
1224;SDS011;602;48.000;7.840;2023-05-07T02:07:00;1.80;;;1.70;;
1224;SDS011;602;48.000;7.840;2023-05-07T02:09:27;1.83;;;1.70;;
1224;SDS011;602;48.000;7.840;2023-05-07T02:11:54;1.60;;;1.50;;
1224;SDS011;602;48.000;7.840;2023-05-07T02:14:22;1.60;;;1.50;;
1224;SDS011;602;48.000;7.840;2023-05-07T02:16:49;1.73;;;1.63;;
1224;SDS011;602;48.000;7.840;2023-05-07T02:19:15;1.17;;;1.07;;
1224;SDS011;602;48.000;7.840;2023-05-07T02:21:43;2.70;;;1.50;;
1224;SDS011;602;48.000;7.840;2023-05-07T02:24:10;1.43;;;1.30;;
1224;SDS011;602;48.000;7.840;2023-05-07T02:26:36;1.50;;;1.37;;
1224;SDS011;602;48.000;7.840;2023-05-07T02:29:03;3.13;;;1.97;;
1224;SDS011;602;48.000;7.840;2023-05-07T02:31:31;1.90;;;1.70;;
1224;SDS011;602;48.000;7.840;2023-05-07T02:33:59;1.60;;;1.50;;
1224;SDS011;602;48.000;7.840;2023-05-07T02:36:26;1.50;;;1.40;;
1224;SDS011;602;48.000;7.840;2023-05-07T02:38:53;1.87;;;1.77;;
1224;SDS011;602;48.000;7.840;2023-05-07T02:41:20;1.40;;;1.30;;
1224;SDS011;602;48.000;7.840;2023-05-07T02:43:47;1.20;;;1.10;;
1224;SDS011;602;48.000;7.840;2023-05-07T02:46:14;1.77;;;1.67;;
1224;SDS011;602;48.000;7.840;2023-05-07T02:48:42;2.27;;;1.20;;
1224;SDS011;602;48.000;7.840;2023-05-07T02:51:09;1.60;;;1.50;;
1224;SDS011;602;48.000;7.840;2023-05-07T02:53:36;1.87;;;1.77;;
1224;SDS011;602;48.000;7.840;2023-05-07T02:56:03;2.10;;;1.80;;
1224;SDS011;602;48.000;7.840;2023-05-07T02:58:31;1.40;;;1.30;;
1224;SDS011;602;48.000;7.840;2023-05-07T03:00:58;3.73;;;1.70;;
1224;SDS011;602;48.000;7.840;2023-05-07T03:03:25;1.73;;;1.60;;
1224;SDS011;602;48.000;7.840;2023-05-07T03:05:53;1.80;;;1.60;;
1224;SDS011;602;48.000;7.840;2023-05-07T03:08:20;1.80;;;1.50;;
1224;SDS011;602;48.000;7.840;2023-05-07T03:10:47;1.53;;;1.13;;
1224;SDS011;602;48.000;7.840;2023-05-07T03:13:14;1.60;;;1.47;;
1224;SDS011;602;48.000;7.840;2023-05-07T03:15:40;2.30;;;1.30;;
1224;SDS011;602;48.000;7.840;2023-05-07T03:18:07;1.10;;;1.10;;
1224;SDS011;602;48.000;7.840;2023-05-07T03:20:34;1.83;;;1.60;;
1224;SDS011;602;48.000;7.840;2023-05-07T03:23:03;1.70;;;1.60;;
1224;SDS011;602;48.000;7.840;2023-05-07T03:25:29;2.10;;;1.67;;
1224;SDS011;602;48.000;7.840;2023-05-07T03:27:56;1.63;;;1.53;;
1224;SDS011;602;48.000;7.840;2023-05-07T03:30:23;1.50;;;1.37;;
1224;SDS011;602;48.000;7.840;2023-05-07T03:32:50;1.73;;;1.60;;
1224;SDS011;602;48.000;7.840;2023-05-07T03:35:17;2.50;;;1.90;;
1224;SDS011;602;48.000;7.840;2023-05-07T03:37:44;1.70;;;1.60;;
1224;SDS011;602;48.000;7.840;2023-05-07T03:40:12;1.60;;;1.50;;
1224;SDS011;602;48.000;7.840;2023-05-07T03:42:39;1.63;;;1.53;;
1224;SDS011;602;48.000;7.840;2023-05-07T03:45:07;2.17;;;2.00;;
1224;SDS011;602;48.000;7.840;2023-05-07T03:47:34;1.70;;;1.60;;
1224;SDS011;602;48.000;7.840;2023-05-07T03:50:01;1.53;;;1.43;;
1224;SDS011;602;48.000;7.840;2023-05-07T03:52:28;1.40;;;1.30;;
1224;SDS011;602;48.000;7.840;2023-05-07T03:54:55;2.63;;;2.30;;
1224;SDS011;602;48.000;7.840;2023-05-07T03:57:24;2.20;;;2.00;;
1224;SDS011;602;48.000;7.840;2023-05-07T03:59:50;2.13;;;1.97;;
1224;SDS011;602;48.000;7.840;2023-05-07T04:02:17;3.07;;;1.77;;
1224;SDS011;602;48.000;7.840;2023-05-07T04:04:44;1.70;;;1.60;;
1224;SDS011;602;48.000;7.840;2023-05-07T04:07:11;2.30;;;2.10;;
1224;SDS011;602;48.000;7.840;2023-05-07T04:09:38;2.27;;;1.90;;
1224;SDS011;602;48.000;7.840;2023-05-07T04:12:05;1.67;;;1.57;;
1224;SDS011;602;48.000;7.840;2023-05-07T04:14:33;2.10;;;1.90;;
1224;SDS011;602;48.000;7.840;2023-05-07T04:17:00;1.57;;;1.37;;
1224;SDS011;602;48.000;7.840;2023-05-07T04:19:27;5.80;;;1.93;;
1224;SDS011;602;48.000;7.840;2023-05-07T04:21:54;1.77;;;1.67;;
1224;SDS011;602;48.000;7.840;2023-05-07T04:24:21;1.90;;;1.67;;
1224;SDS011;602;48.000;7.840;2023-05-07T04:26:48;2.13;;;1.77;;
1224;SDS011;602;48.000;7.840;2023-05-07T04:29:16;1.80;;;1.70;;
1224;SDS011;602;48.000;7.840;2023-05-07T04:31:44;1.80;;;1.70;;
1224;SDS011;602;48.000;7.840;2023-05-07T04:34:11;6.07;;;1.83;;
1224;SDS011;602;48.000;7.840;2023-05-07T04:36:39;1.37;;;1.30;;
1224;SDS011;602;48.000;7.840;2023-05-07T04:39:06;2.13;;;1.57;;
1224;SDS011;602;48.000;7.840;2023-05-07T04:41:33;2.30;;;1.50;;
1224;SDS011;602;48.000;7.840;2023-05-07T04:44:01;2.40;;;1.97;;
1224;SDS011;602;48.000;7.840;2023-05-07T04:46:29;1.53;;;1.43;;
1224;SDS011;602;48.000;7.840;2023-05-07T04:48:57;1.73;;;1.63;;
1224;SDS011;602;48.000;7.840;2023-05-07T04:51:24;2.80;;;2.53;;
1224;SDS011;602;48.000;7.840;2023-05-07T04:53:51;2.40;;;1.90;;
1224;SDS011;602;48.000;7.840;2023-05-07T04:56:18;2.23;;;1.80;;
1224;SDS011;602;48.000;7.840;2023-05-07T04:58:45;1.83;;;1.47;;
1224;SDS011;602;48.000;7.840;2023-05-07T05:01:12;2.30;;;1.80;;
1224;SDS011;602;48.000;7.840;2023-05-07T05:03:39;2.73;;;1.60;;
1224;SDS011;602;48.000;7.840;2023-05-07T05:06:07;3.67;;;1.30;;
1224;SDS011;602;48.000;7.840;2023-05-07T05:08:34;2.17;;;1.97;;
1224;SDS011;602;48.000;7.840;2023-05-07T05:11:01;1.70;;;1.60;;
1224;SDS011;602;48.000;7.840;2023-05-07T05:13:28;2.10;;;1.53;;
1224;SDS011;602;48.000;7.840;2023-05-07T05:15:55;1.73;;;1.60;;
1224;SDS011;602;48.000;7.840;2023-05-07T05:18:22;2.33;;;2.23;;
1224;SDS011;602;48.000;7.840;2023-05-07T05:20:49;2.00;;;1.70;;
1224;SDS011;602;48.000;7.840;2023-05-07T05:23:19;1.80;;;1.67;;
1224;SDS011;602;48.000;7.840;2023-05-07T05:25:46;2.20;;;2.00;;
1224;SDS011;602;48.000;7.840;2023-05-07T05:28:13;2.23;;;1.90;;
1224;SDS011;602;48.000;7.840;2023-05-07T05:30:39;1.60;;;1.43;;
1224;SDS011;602;48.000;7.840;2023-05-07T05:33:06;2.93;;;1.77;;
1224;SDS011;602;48.000;7.840;2023-05-07T05:35:33;2.40;;;1.90;;
1224;SDS011;602;48.000;7.840;2023-05-07T05:38:00;2.50;;;1.50;;
1224;SDS011;602;48.000;7.840;2023-05-07T05:40:28;1.90;;;1.80;;
1224;SDS011;602;48.000;7.840;2023-05-07T05:42:55;1.70;;;1.60;;
1224;SDS011;602;48.000;7.840;2023-05-07T05:45:22;1.70;;;1.60;;
1224;SDS011;602;48.000;7.840;2023-05-07T05:47:49;1.50;;;1.40;;
1224;SDS011;602;48.000;7.840;2023-05-07T05:50:16;1.50;;;1.40;;
1224;SDS011;602;48.000;7.840;2023-05-07T05:52:43;1.90;;;1.80;;
1224;SDS011;602;48.000;7.840;2023-05-07T05:55:10;1.87;;;1.70;;
1224;SDS011;602;48.000;7.840;2023-05-07T05:57:38;4.80;;;3.37;;
1224;SDS011;602;48.000;7.840;2023-05-07T06:00:05;3.93;;;2.50;;
1224;SDS011;602;48.000;7.840;2023-05-07T06:02:35;2.40;;;2.20;;
1224;SDS011;602;48.000;7.840;2023-05-07T06:05:01;1.90;;;1.80;;
1224;SDS011;602;48.000;7.840;2023-05-07T06:07:29;1.93;;;1.83;;
1224;SDS011;602;48.000;7.840;2023-05-07T06:09:56;3.07;;;2.10;;
1224;SDS011;602;48.000;7.840;2023-05-07T06:12:22;2.10;;;1.70;;
1224;SDS011;602;48.000;7.840;2023-05-07T06:14:51;1.97;;;1.77;;
1224;SDS011;602;48.000;7.840;2023-05-07T06:17:18;2.60;;;2.30;;
1224;SDS011;602;48.000;7.840;2023-05-07T06:19:44;2.40;;;2.17;;
1224;SDS011;602;48.000;7.840;2023-05-07T06:22:11;2.33;;;2.13;;
1224;SDS011;602;48.000;7.840;2023-05-07T06:24:38;2.27;;;1.67;;
1224;SDS011;602;48.000;7.840;2023-05-07T06:27:05;3.17;;;1.87;;
1224;SDS011;602;48.000;7.840;2023-05-07T06:29:32;2.27;;;2.07;;
1224;SDS011;602;48.000;7.840;2023-05-07T06:32:07;2.37;;;1.80;;
1224;SDS011;602;48.000;7.840;2023-05-07T06:34:33;2.40;;;2.13;;
1224;SDS011;602;48.000;7.840;2023-05-07T06:37:00;1.10;;;1.10;;
1224;SDS011;602;48.000;7.840;2023-05-07T06:39:27;2.20;;;2.07;;
1224;SDS011;602;48.000;7.840;2023-05-07T06:41:54;2.20;;;1.80;;
1224;SDS011;602;48.000;7.840;2023-05-07T06:44:21;3.90;;;2.37;;
1224;SDS011;602;48.000;7.840;2023-05-07T06:46:48;4.03;;;2.10;;
1224;SDS011;602;48.000;7.840;2023-05-07T06:49:16;3.40;;;2.30;;
1224;SDS011;602;48.000;7.840;2023-05-07T06:51:43;2.60;;;2.40;;
1224;SDS011;602;48.000;7.840;2023-05-07T06:54:10;2.83;;;2.10;;
1224;SDS011;602;48.000;7.840;2023-05-07T06:56:37;5.50;;;2.00;;
1224;SDS011;602;48.000;7.840;2023-05-07T06:59:04;2.17;;;1.80;;
1224;SDS011;602;48.000;7.840;2023-05-07T07:01:31;3.13;;;2.83;;
1224;SDS011;602;48.000;7.840;2023-05-07T07:03:57;2.10;;;1.90;;
1224;SDS011;602;48.000;7.840;2023-05-07T07:06:26;3.30;;;2.23;;
1224;SDS011;602;48.000;7.840;2023-05-07T07:08:53;3.33;;;2.27;;
1224;SDS011;602;48.000;7.840;2023-05-07T07:11:20;2.03;;;1.90;;
1224;SDS011;602;48.000;7.840;2023-05-07T07:13:47;1.90;;;1.70;;
1224;SDS011;602;48.000;7.840;2023-05-07T07:16:14;2.73;;;2.37;;
1224;SDS011;602;48.000;7.840;2023-05-07T07:18:41;1.80;;;1.70;;
1224;SDS011;602;48.000;7.840;2023-05-07T07:21:08;2.43;;;2.23;;
1224;SDS011;602;48.000;7.840;2023-05-07T07:23:36;3.63;;;2.20;;
1224;SDS011;602;48.000;7.840;2023-05-07T07:26:03;2.33;;;2.13;;
1224;SDS011;602;48.000;7.840;2023-05-07T07:28:31;2.03;;;1.93;;
1224;SDS011;602;48.000;7.840;2023-05-07T07:30:57;2.60;;;2.27;;
1224;SDS011;602;48.000;7.840;2023-05-07T07:33:24;2.27;;;2.17;;
1224;SDS011;602;48.000;7.840;2023-05-07T07:35:51;3.00;;;2.70;;
1224;SDS011;602;48.000;7.840;2023-05-07T07:38:18;3.10;;;2.90;;
1224;SDS011;602;48.000;7.840;2023-05-07T07:40:48;2.63;;;2.43;;
1224;SDS011;602;48.000;7.840;2023-05-07T07:43:15;2.70;;;2.50;;
1224;SDS011;602;48.000;7.840;2023-05-07T07:45:42;2.40;;;2.20;;
1224;SDS011;602;48.000;7.840;2023-05-07T07:48:11;2.43;;;2.23;;
1224;SDS011;602;48.000;7.840;2023-05-07T07:50:38;2.40;;;2.20;;
1224;SDS011;602;48.000;7.840;2023-05-07T07:53:05;3.20;;;2.70;;
1224;SDS011;602;48.000;7.840;2023-05-07T07:55:31;2.50;;;2.40;;
1224;SDS011;602;48.000;7.840;2023-05-07T07:58:00;2.40;;;2.17;;
1224;SDS011;602;48.000;7.840;2023-05-07T08:00:26;2.13;;;2.03;;
1224;SDS011;602;48.000;7.840;2023-05-07T08:02:53;2.13;;;2.03;;
1224;SDS011;602;48.000;7.840;2023-05-07T08:05:20;2.47;;;2.27;;
1224;SDS011;602;48.000;7.840;2023-05-07T08:07:47;2.40;;;2.20;;
1224;SDS011;602;48.000;7.840;2023-05-07T08:10:17;2.37;;;2.23;;
1224;SDS011;602;48.000;7.840;2023-05-07T08:12:46;2.57;;;2.37;;
1224;SDS011;602;48.000;7.840;2023-05-07T08:15:15;2.37;;;2.17;;
1224;SDS011;602;48.000;7.840;2023-05-07T08:17:42;4.03;;;2.50;;
1224;SDS011;602;48.000;7.840;2023-05-07T08:20:09;2.50;;;2.30;;
1224;SDS011;602;48.000;7.840;2023-05-07T08:22:37;2.63;;;2.43;;
1224;SDS011;602;48.000;7.840;2023-05-07T08:25:04;2.57;;;2.37;;
1224;SDS011;602;48.000;7.840;2023-05-07T08:27:31;2.63;;;2.43;;
1224;SDS011;602;48.000;7.840;2023-05-07T08:29:58;2.10;;;2.00;;
1224;SDS011;602;48.000;7.840;2023-05-07T08:32:26;1.97;;;1.87;;
1224;SDS011;602;48.000;7.840;2023-05-07T08:34:53;2.07;;;1.97;;
1224;SDS011;602;48.000;7.840;2023-05-07T08:37:20;2.20;;;2.00;;
1224;SDS011;602;48.000;7.840;2023-05-07T08:39:47;2.13;;;1.93;;
1224;SDS011;602;48.000;7.840;2023-05-07T08:42:14;2.57;;;1.97;;
1224;SDS011;602;48.000;7.840;2023-05-07T08:44:44;3.07;;;2.23;;
1224;SDS011;602;48.000;7.840;2023-05-07T08:47:12;2.50;;;2.30;;
1224;SDS011;602;48.000;7.840;2023-05-07T08:49:40;2.20;;;2.10;;
1224;SDS011;602;48.000;7.840;2023-05-07T08:52:07;2.30;;;2.10;;
1224;SDS011;602;48.000;7.840;2023-05-07T08:54:36;2.70;;;2.10;;
1224;SDS011;602;48.000;7.840;2023-05-07T08:57:03;2.60;;;2.13;;
1224;SDS011;602;48.000;7.840;2023-05-07T08:59:30;2.27;;;2.13;;
1224;SDS011;602;48.000;7.840;2023-05-07T09:01:57;2.47;;;2.33;;
1224;SDS011;602;48.000;7.840;2023-05-07T09:04:24;2.60;;;2.40;;
1224;SDS011;602;48.000;7.840;2023-05-07T09:06:52;2.43;;;2.23;;
1224;SDS011;602;48.000;7.840;2023-05-07T09:09:21;3.67;;;2.60;;
1224;SDS011;602;48.000;7.840;2023-05-07T09:11:48;3.30;;;2.97;;
1224;SDS011;602;48.000;7.840;2023-05-07T09:14:23;2.57;;;2.37;;
1224;SDS011;602;48.000;7.840;2023-05-07T09:16:51;2.60;;;2.40;;
1224;SDS011;602;48.000;7.840;2023-05-07T09:19:21;2.90;;;2.70;;
1224;SDS011;602;48.000;7.840;2023-05-07T09:21:49;3.30;;;3.00;;
1224;SDS011;602;48.000;7.840;2023-05-07T09:24:24;3.13;;;2.60;;
1224;SDS011;602;48.000;7.840;2023-05-07T09:26:51;2.97;;;2.77;;
1224;SDS011;602;48.000;7.840;2023-05-07T09:29:18;2.50;;;2.30;;
1224;SDS011;602;48.000;7.840;2023-05-07T09:31:45;1.87;;;1.77;;
1224;SDS011;602;48.000;7.840;2023-05-07T09:34:12;1.93;;;1.83;;
1224;SDS011;602;48.000;7.840;2023-05-07T09:36:39;2.33;;;2.13;;
1224;SDS011;602;48.000;7.840;2023-05-07T09:39:06;2.00;;;1.80;;
1224;SDS011;602;48.000;7.840;2023-05-07T09:41:36;2.63;;;2.43;;
1224;SDS011;602;48.000;7.840;2023-05-07T09:44:10;2.50;;;2.27;;
1224;SDS011;602;48.000;7.840;2023-05-07T09:46:37;2.50;;;2.30;;
1224;SDS011;602;48.000;7.840;2023-05-07T09:49:05;2.50;;;2.30;;
1224;SDS011;602;48.000;7.840;2023-05-07T09:51:38;2.33;;;1.97;;
1224;SDS011;602;48.000;7.840;2023-05-07T09:54:09;2.80;;;2.60;;
1224;SDS011;602;48.000;7.840;2023-05-07T09:56:38;2.60;;;2.40;;
1224;SDS011;602;48.000;7.840;2023-05-07T09:59:07;2.80;;;2.10;;
1224;SDS011;602;48.000;7.840;2023-05-07T10:01:36;2.30;;;2.10;;
1224;SDS011;602;48.000;7.840;2023-05-07T10:04:05;2.43;;;2.10;;
1224;SDS011;602;48.000;7.840;2023-05-07T10:06:33;2.80;;;2.60;;
1224;SDS011;602;48.000;7.840;2023-05-07T10:09:01;2.67;;;2.33;;
1224;SDS011;602;48.000;7.840;2023-05-07T10:11:28;2.00;;;1.90;;
1224;SDS011;602;48.000;7.840;2023-05-07T10:13:56;2.90;;;1.77;;
1224;SDS011;602;48.000;7.840;2023-05-07T10:16:24;1.80;;;1.70;;
1224;SDS011;602;48.000;7.840;2023-05-07T10:18:53;3.03;;;2.27;;
1224;SDS011;602;48.000;7.840;2023-05-07T10:21:21;2.17;;;2.00;;
1224;SDS011;602;48.000;7.840;2023-05-07T10:23:50;1.80;;;1.70;;
1224;SDS011;602;48.000;7.840;2023-05-07T10:26:22;1.97;;;1.87;;
1224;SDS011;602;48.000;7.840;2023-05-07T10:28:52;2.07;;;1.97;;
1224;SDS011;602;48.000;7.840;2023-05-07T10:31:33;2.53;;;1.80;;
1224;SDS011;602;48.000;7.840;2023-05-07T10:34:16;2.10;;;1.90;;
1224;SDS011;602;48.000;7.840;2023-05-07T10:36:58;1.60;;;1.50;;
1224;SDS011;602;48.000;7.840;2023-05-07T10:39:26;1.80;;;1.70;;
1224;SDS011;602;48.000;7.840;2023-05-07T10:41:53;2.17;;;1.77;;
1224;SDS011;602;48.000;7.840;2023-05-07T10:44:26;1.80;;;1.70;;
1224;SDS011;602;48.000;7.840;2023-05-07T10:47:05;3.23;;;2.93;;
1224;SDS011;602;48.000;7.840;2023-05-07T10:49:34;2.10;;;2.00;;
1224;SDS011;602;48.000;7.840;2023-05-07T10:52:11;1.77;;;1.67;;
1224;SDS011;602;48.000;7.840;2023-05-07T10:54:40;4.90;;;2.30;;
1224;SDS011;602;48.000;7.840;2023-05-07T11:00:01;2.40;;;2.20;;
1224;SDS011;602;48.000;7.840;2023-05-07T11:05:34;2.23;;;2.03;;
1224;SDS011;602;48.000;7.840;2023-05-07T11:08:02;1.93;;;1.57;;
1224;SDS011;602;48.000;7.840;2023-05-07T11:10:52;2.07;;;1.87;;
1224;SDS011;602;48.000;7.840;2023-05-07T11:16:16;1.73;;;1.63;;
1224;SDS011;602;48.000;7.840;2023-05-07T11:18:48;2.00;;;1.90;;
1224;SDS011;602;48.000;7.840;2023-05-07T11:21:33;2.17;;;1.97;;
1224;SDS011;602;48.000;7.840;2023-05-07T11:24:01;2.10;;;2.00;;
1224;SDS011;602;48.000;7.840;2023-05-07T11:26:29;2.20;;;2.10;;
1224;SDS011;602;48.000;7.840;2023-05-07T11:28:57;3.03;;;2.53;;
1224;SDS011;602;48.000;7.840;2023-05-07T11:31:26;2.40;;;2.20;;
1224;SDS011;602;48.000;7.840;2023-05-07T11:33:56;1.73;;;1.63;;
1224;SDS011;602;48.000;7.840;2023-05-07T11:36:23;2.87;;;2.67;;
1224;SDS011;602;48.000;7.840;2023-05-07T11:38:52;2.00;;;1.80;;
1224;SDS011;602;48.000;7.840;2023-05-07T11:41:19;2.00;;;1.90;;
1224;SDS011;602;48.000;7.840;2023-05-07T11:43:58;2.93;;;1.90;;
1224;SDS011;602;48.000;7.840;2023-05-07T11:46:26;2.10;;;2.00;;
1224;SDS011;602;48.000;7.840;2023-05-07T11:48:54;2.20;;;2.00;;
1224;SDS011;602;48.000;7.840;2023-05-07T11:51:23;2.90;;;2.60;;
1224;SDS011;602;48.000;7.840;2023-05-07T11:53:51;2.03;;;1.93;;
1224;SDS011;602;48.000;7.840;2023-05-07T11:56:18;1.60;;;1.50;;
1224;SDS011;602;48.000;7.840;2023-05-07T11:58:46;1.77;;;1.67;;
1224;SDS011;602;48.000;7.840;2023-05-07T12:01:14;1.90;;;1.80;;
1224;SDS011;602;48.000;7.840;2023-05-07T12:03:44;2.33;;;2.10;;
1224;SDS011;602;48.000;7.840;2023-05-07T12:06:13;1.73;;;1.63;;
1224;SDS011;602;48.000;7.840;2023-05-07T12:08:42;2.00;;;1.90;;
1224;SDS011;602;48.000;7.840;2023-05-07T12:11:10;2.03;;;1.87;;
1224;SDS011;602;48.000;7.840;2023-05-07T12:13:41;2.27;;;1.93;;
1224;SDS011;602;48.000;7.840;2023-05-07T12:16:08;2.33;;;2.13;;
1224;SDS011;602;48.000;7.840;2023-05-07T12:18:35;2.07;;;1.87;;
1224;SDS011;602;48.000;7.840;2023-05-07T12:21:04;1.73;;;1.63;;
1224;SDS011;602;48.000;7.840;2023-05-07T12:23:33;2.33;;;2.10;;
1224;SDS011;602;48.000;7.840;2023-05-07T12:26:01;2.30;;;2.10;;
1224;SDS011;602;48.000;7.840;2023-05-07T12:28:29;4.33;;;2.70;;
1224;SDS011;602;48.000;7.840;2023-05-07T12:30:56;2.17;;;1.90;;
1224;SDS011;602;48.000;7.840;2023-05-07T12:33:24;2.60;;;2.40;;
1224;SDS011;602;48.000;7.840;2023-05-07T12:35:54;3.13;;;2.30;;
1224;SDS011;602;48.000;7.840;2023-05-07T12:38:22;2.40;;;2.20;;
1224;SDS011;602;48.000;7.840;2023-05-07T12:40:52;3.43;;;1.70;;
1224;SDS011;602;48.000;7.840;2023-05-07T12:43:21;2.00;;;1.90;;
1224;SDS011;602;48.000;7.840;2023-05-07T12:45:50;3.60;;;2.60;;
1224;SDS011;602;48.000;7.840;2023-05-07T12:48:19;3.40;;;3.10;;
1224;SDS011;602;48.000;7.840;2023-05-07T12:50:48;2.07;;;1.93;;
1224;SDS011;602;48.000;7.840;2023-05-07T12:53:16;2.47;;;2.30;;
1224;SDS011;602;48.000;7.840;2023-05-07T12:55:44;2.33;;;2.00;;
1224;SDS011;602;48.000;7.840;2023-05-07T12:58:17;1.50;;;1.40;;
1224;SDS011;602;48.000;7.840;2023-05-07T13:00:47;2.77;;;2.57;;
1224;SDS011;602;48.000;7.840;2023-05-07T13:03:20;4.10;;;2.83;;
1224;SDS011;602;48.000;7.840;2023-05-07T13:05:49;2.93;;;2.60;;
1224;SDS011;602;48.000;7.840;2023-05-07T13:08:26;2.03;;;1.93;;
1224;SDS011;602;48.000;7.840;2023-05-07T13:10:54;1.90;;;1.80;;
1224;SDS011;602;48.000;7.840;2023-05-07T13:13:22;2.20;;;2.10;;
1224;SDS011;602;48.000;7.840;2023-05-07T13:15:50;2.43;;;2.00;;
1224;SDS011;602;48.000;7.840;2023-05-07T13:18:17;1.80;;;1.70;;
1224;SDS011;602;48.000;7.840;2023-05-07T13:20:43;1.90;;;1.80;;
1224;SDS011;602;48.000;7.840;2023-05-07T13:23:10;1.63;;;1.53;;
1224;SDS011;602;48.000;7.840;2023-05-07T13:25:37;1.87;;;1.77;;
1224;SDS011;602;48.000;7.840;2023-05-07T13:28:05;1.93;;;1.60;;
1224;SDS011;602;48.000;7.840;2023-05-07T13:30:33;2.17;;;2.07;;
1224;SDS011;602;48.000;7.840;2023-05-07T13:33:00;2.40;;;2.20;;
1224;SDS011;602;48.000;7.840;2023-05-07T13:35:27;3.70;;;2.47;;
1224;SDS011;602;48.000;7.840;2023-05-07T13:37:54;3.33;;;2.50;;
1224;SDS011;602;48.000;7.840;2023-05-07T13:40:21;2.73;;;2.53;;
1224;SDS011;602;48.000;7.840;2023-05-07T13:42:48;2.63;;;2.40;;
1224;SDS011;602;48.000;7.840;2023-05-07T13:45:15;2.13;;;2.03;;
1224;SDS011;602;48.000;7.840;2023-05-07T13:47:45;2.87;;;2.60;;
1224;SDS011;602;48.000;7.840;2023-05-07T13:50:14;2.90;;;2.70;;
1224;SDS011;602;48.000;7.840;2023-05-07T13:52:42;2.20;;;2.10;;
1224;SDS011;602;48.000;7.840;2023-05-07T13:55:12;9.13;;;5.53;;
1224;SDS011;602;48.000;7.840;2023-05-07T13:57:39;6.70;;;4.60;;
1224;SDS011;602;48.000;7.840;2023-05-07T14:00:06;2.80;;;2.60;;
1224;SDS011;602;48.000;7.840;2023-05-07T14:02:34;3.13;;;2.90;;
1224;SDS011;602;48.000;7.840;2023-05-07T14:05:02;3.30;;;2.67;;
1224;SDS011;602;48.000;7.840;2023-05-07T14:07:30;4.03;;;3.60;;
1224;SDS011;602;48.000;7.840;2023-05-07T14:09:57;2.77;;;2.57;;
1224;SDS011;602;48.000;7.840;2023-05-07T14:12:24;2.20;;;2.10;;
1224;SDS011;602;48.000;7.840;2023-05-07T14:14:50;3.03;;;2.73;;
1224;SDS011;602;48.000;7.840;2023-05-07T14:17:17;3.17;;;2.27;;
1224;SDS011;602;48.000;7.840;2023-05-07T14:19:45;5.33;;;4.73;;
1224;SDS011;602;48.000;7.840;2023-05-07T14:22:14;3.73;;;3.37;;
1224;SDS011;602;48.000;7.840;2023-05-07T14:24:41;1.60;;;1.50;;
1224;SDS011;602;48.000;7.840;2023-05-07T14:27:07;3.17;;;1.77;;
1224;SDS011;602;48.000;7.840;2023-05-07T14:29:34;2.13;;;2.03;;
1224;SDS011;602;48.000;7.840;2023-05-07T14:32:01;1.97;;;1.87;;
1224;SDS011;602;48.000;7.840;2023-05-07T14:34:29;2.10;;;2.00;;
1224;SDS011;602;48.000;7.840;2023-05-07T14:36:56;3.40;;;2.40;;
1224;SDS011;602;48.000;7.840;2023-05-07T14:39:24;2.00;;;1.90;;
1224;SDS011;602;48.000;7.840;2023-05-07T14:41:51;1.90;;;1.80;;
1224;SDS011;602;48.000;7.840;2023-05-07T14:44:19;2.70;;;2.20;;
1224;SDS011;602;48.000;7.840;2023-05-07T14:46:46;2.47;;;2.10;;
1224;SDS011;602;48.000;7.840;2023-05-07T14:49:13;2.00;;;1.83;;
1224;SDS011;602;48.000;7.840;2023-05-07T14:51:42;1.77;;;1.60;;
1224;SDS011;602;48.000;7.840;2023-05-07T14:54:09;1.40;;;1.30;;
1224;SDS011;602;48.000;7.840;2023-05-07T14:56:38;1.63;;;1.33;;
1224;SDS011;602;48.000;7.840;2023-05-07T14:59:05;1.00;;;1.00;;
1224;SDS011;602;48.000;7.840;2023-05-07T15:01:31;0.87;;;0.87;;
1224;SDS011;602;48.000;7.840;2023-05-07T15:04:00;0.87;;;0.87;;
1224;SDS011;602;48.000;7.840;2023-05-07T15:06:26;0.80;;;0.80;;
1224;SDS011;602;48.000;7.840;2023-05-07T15:08:54;1.27;;;1.20;;
1224;SDS011;602;48.000;7.840;2023-05-07T15:11:21;1.23;;;0.90;;
1224;SDS011;602;48.000;7.840;2023-05-07T15:13:53;1.00;;;1.00;;
1224;SDS011;602;48.000;7.840;2023-05-07T15:16:22;1.10;;;1.00;;
1224;SDS011;602;48.000;7.840;2023-05-07T15:18:49;0.90;;;0.90;;
1224;SDS011;602;48.000;7.840;2023-05-07T15:21:16;1.33;;;1.23;;
1224;SDS011;602;48.000;7.840;2023-05-07T15:23:43;1.53;;;1.43;;
1224;SDS011;602;48.000;7.840;2023-05-07T15:26:10;1.30;;;1.20;;
1224;SDS011;602;48.000;7.840;2023-05-07T15:28:37;1.43;;;1.20;;
1224;SDS011;602;48.000;7.840;2023-05-07T15:31:05;1.57;;;1.43;;
1224;SDS011;602;48.000;7.840;2023-05-07T15:33:32;0.63;;;0.63;;
1224;SDS011;602;48.000;7.840;2023-05-07T15:35:59;1.03;;;1.03;;
1224;SDS011;602;48.000;7.840;2023-05-07T15:38:28;1.27;;;1.17;;
1224;SDS011;602;48.000;7.840;2023-05-07T15:40:55;1.17;;;1.07;;
1224;SDS011;602;48.000;7.840;2023-05-07T15:43:21;2.10;;;1.20;;